Time;durP1;ratioP1;P1;durP2;ratioP2;P2;SDS_P1;SDS_P2;PMS_P1;PMS_P2;Temp;Humidity;BMP_temperature;BMP_pressure;BME280_temperature;BME280_humidity;BME280_pressure;Samples;Min_cycle;Max_cycle;Signal;HPM_P1;HPM_P2
2021/08/18 00:01:03;;;;;;;26.15;4.20;;;40.10;37.90;;;;;;5079497;28;20073;-63
2021/08/18 00:03:31;;;;;;;38.85;3.95;;;40.10;38.10;;;;;;5080197;28;20156;-63
2021/08/18 00:05:58;;;;;;;34.50;4.55;;;40.10;37.60;;;;;;5086496;28;20084;-62
2021/08/18 00:08:24;;;;;;;42.75;4.47;;;39.90;37.70;;;;;;5081767;28;20094;-61
2021/08/18 00:10:52;;;;;;;38.28;4.65;;;39.80;38.20;;;;;;5076183;28;20413;-63
2021/08/18 00:13:22;;;;;;;50.83;5.18;;;39.60;38.10;;;;;;5076065;28;20065;-62
2021/08/18 00:15:49;;;;;;;52.33;5.40;;;39.50;38.40;;;;;;5081318;28;20105;-65
2021/08/18 00:18:17;;;;;;;43.28;5.60;;;39.40;39.10;;;;;;5076030;28;20130;-64
2021/08/18 00:20:44;;;;;;;42.92;7.00;;;39.40;39.10;;;;;;5077307;28;20422;-64
2021/08/18 00:23:11;;;;;;;41.60;7.22;;;39.30;39.30;;;;;;5075377;28;20122;-64
2021/08/18 00:25:37;;;;;;;55.47;6.07;;;39.20;39.60;;;;;;5078748;28;20076;-65
2021/08/18 00:28:04;;;;;;;26.65;4.72;;;39.10;40.10;;;;;;5078995;28;20480;-63
2021/08/18 00:30:31;;;;;;;51.90;4.72;;;38.90;40.30;;;;;;5081797;28;20101;-63
2021/08/18 00:32:57;;;;;;;46.42;5.65;;;38.90;40.90;;;;;;5077682;28;20072;-65
2021/08/18 00:35:24;;;;;;;39.72;5.55;;;38.80;41.00;;;;;;5077233;28;20081;-63
2021/08/18 00:37:50;;;;;;;42.92;5.10;;;38.90;41.20;;;;;;5077670;28;20076;-63
2021/08/18 00:40:17;;;;;;;36.20;4.90;;;38.70;41.10;;;;;;5079937;28;20068;-63
2021/08/18 00:42:45;;;;;;;31.95;5.13;;;38.50;40.90;;;;;;5075379;28;20138;-64
2021/08/18 00:45:15;;;;;;;44.85;4.20;;;38.50;41.70;;;;;;5076334;28;20530;-62
2021/08/18 00:47:52;;;;;;;51.90;5.13;;;38.50;42.10;;;;;;5082120;28;20100;-63
2021/08/18 00:50:23;;;;;;;40.10;5.18;;;38.40;42.90;;;;;;5080099;28;20082;-63
2021/08/18 00:52:49;;;;;;;59.95;5.60;;;38.30;43.60;;;;;;5083606;28;20107;-63
2021/08/18 00:55:19;;;;;;;39.05;4.53;;;38.30;43.20;;;;;;5078436;28;20553;-62
2021/08/18 00:57:46;;;;;;;38.88;4.68;;;38.30;43.50;;;;;;5076687;28;20076;-62
2021/08/18 01:00:15;;;;;;;33.33;4.60;;;38.10;44.10;;;;;;5081701;28;20073;-64
2021/08/18 01:02:46;;;;;;;37.17;5.32;;;38.00;43.80;;;;;;5079644;28;20080;-63
2021/08/18 01:05:16;;;;;;;39.13;4.82;;;38.00;44.60;;;;;;5086448;28;20103;-62
2021/08/18 01:07:44;;;;;;;44.45;4.75;;;37.80;44.60;;;;;;5083073;28;20081;-64
2021/08/18 01:10:13;;;;;;;25.80;4.28;;;37.70;44.80;;;;;;5085020;28;20096;-62
2021/08/18 01:12:43;;;;;;;33.90;4.38;;;37.70;44.60;;;;;;5083236;28;20076;-64
2021/08/18 01:15:15;;;;;;;30.63;4.20;;;37.70;44.90;;;;;;5083288;28;20084;-64
2021/08/18 01:17:44;;;;;;;43.42;5.20;;;37.60;45.60;;;;;;5082195;28;20159;-63
2021/08/18 01:20:14;;;;;;;47.22;4.72;;;37.60;46.60;;;;;;5088521;28;20065;-64
2021/08/18 01:22:42;;;;;;;44.58;4.65;;;37.60;46.80;;;;;;5086939;28;20065;-64
2021/08/18 01:25:10;;;;;;;26.67;4.18;;;37.50;47.10;;;;;;5085028;28;20073;-65
2021/08/18 01:27:43;;;;;;;43.78;5.20;;;37.40;47.50;;;;;;5086186;28;20111;-64
2021/08/18 01:30:11;;;;;;;40.83;5.18;;;37.30;48.40;;;;;;5081410;28;20065;-63
2021/08/18 01:32:49;;;;;;;33.75;5.15;;;37.30;48.40;;;;;;5084212;28;20065;-63
2021/08/18 01:35:30;;;;;;;39.75;5.10;;;37.10;48.70;;;;;;5084532;28;20129;-66
2021/08/18 01:37:58;;;;;;;37.20;5.03;;;37.00;49.30;;;;;;5088892;28;20076;-64
2021/08/18 01:40:25;;;;;;;39.08;4.50;;;36.90;49.70;;;;;;5082702;28;20079;-65
2021/08/18 01:42:52;;;;;;;35.47;4.72;;;36.80;49.80;;;;;;5085147;28;20069;-65
2021/08/18 01:45:20;;;;;;;32.13;5.07;;;36.90;50.30;;;;;;5085453;28;20148;-64
2021/08/18 01:47:47;;;;;;;40.60;5.25;;;36.70;49.70;;;;;;5089767;28;20129;-63
2021/08/18 01:50:14;;;;;;;31.15;4.30;;;36.60;49.50;;;;;;5083591;28;20142;-63
2021/08/18 01:52:42;;;;;;;31.52;5.00;;;36.60;49.60;;;;;;5086135;28;20449;-62
2021/08/18 01:55:09;;;;;;;41.67;5.20;;;36.60;49.40;;;;;;5088199;28;20459;-66
2021/08/18 01:57:42;;;;;;;29.52;5.03;;;36.60;48.80;;;;;;5084876;28;20138;-67
2021/08/18 02:00:09;;;;;;;23.40;4.30;;;36.50;49.40;;;;;;5084912;28;20080;-62
2021/08/18 02:02:36;;;;;;;20.90;4.20;;;36.50;49.30;;;;;;5084018;28;20079;-63
2021/08/18 02:05:03;;;;;;;32.53;4.60;;;36.40;48.20;;;;;;5084223;28;20122;-63
2021/08/18 02:07:30;;;;;;;15.90;4.03;;;36.50;48.00;;;;;;5083280;28;20537;-63
2021/08/18 02:09:57;;;;;;;34.65;5.65;;;36.40;47.50;;;;;;5084465;28;20072;-65
2021/08/18 02:12:23;;;;;;;35.55;4.70;;;36.40;47.20;;;;;;5082384;28;20073;-63
2021/08/18 02:14:50;;;;;;;20.48;4.07;;;36.30;47.10;;;;;;5083331;28;20076;-63
2021/08/18 02:17:17;;;;;;;26.02;4.18;;;36.30;47.50;;;;;;5085739;28;20128;-64
2021/08/18 02:19:43;;;;;;;33.13;4.78;;;36.10;47.90;;;;;;5083967;28;20076;-66
2021/08/18 02:22:10;;;;;;;51.58;4.55;;;36.10;47.90;;;;;;5084008;28;20093;-65
2021/08/18 02:24:36;;;;;;;26.92;4.43;;;36.00;48.20;;;;;;5085371;28;20084;-64
2021/08/18 02:27:04;;;;;;;23.90;3.97;;;36.00;48.20;;;;;;5081568;28;20072;-64
2021/08/18 02:29:30;;;;;;;21.67;3.97;;;36.00;47.90;;;;;;5085220;28;20077;-64
2021/08/18 02:31:57;;;;;;;21.50;3.92;;;35.90;47.70;;;;;;5082671;28;20634;-65
2021/08/18 02:34:24;;;;;;;29.15;4.00;;;35.80;47.70;;;;;;5080342;28;20069;-66
2021/08/18 02:36:50;;;;;;;22.55;4.05;;;35.80;47.50;;;;;;5079517;28;20105;-65
2021/08/18 02:39:17;;;;;;;26.92;4.15;;;35.70;47.60;;;;;;5085546;28;20077;-63
2021/08/18 02:41:43;;;;;;;27.23;4.47;;;35.70;47.60;;;;;;5081036;28;20106;-64
2021/08/18 02:44:10;;;;;;;30.20;4.60;;;35.70;47.50;;;;;;5080657;28;20068;-64
2021/08/18 02:46:37;;;;;;;25.27;4.22;;;35.70;47.60;;;;;;5080814;28;20081;-67
2021/08/18 02:49:03;;;;;;;32.00;3.90;;;35.70;47.60;;;;;;5086312;28;20073;-63
2021/08/18 02:51:30;;;;;;;14.63;3.75;;;35.70;56.70;;;;;;5083791;28;20149;-63
2021/08/18 02:53:56;;;;;;;17.50;4.53;;;35.60;48.30;;;;;;5080846;28;20028;-63
2021/08/18 02:56:23;;;;;;;21.77;4.40;;;35.40;48.50;;;;;;5080798;28;20097;-64
2021/08/18 02:58:50;;;;;;;23.15;3.75;;;35.40;48.40;;;;;;5079347;28;20410;-64
2021/08/18 03:01:16;;;;;;;16.95;3.65;;;35.30;71.10;;;;;;5085051;28;20088;-65
2021/08/18 03:03:43;;;;;;;24.52;4.28;;;35.30;48.40;;;;;;5082015;28;20063;-65
2021/08/18 03:06:09;;;;;;;18.92;4.20;;;35.30;48.80;;;;;;5082973;28;20067;-65
2021/08/18 03:08:36;;;;;;;21.52;4.38;;;34.50;81.10;;;;;;5082558;28;20103;-65
2021/08/18 03:11:02;;;;;;;24.25;5.38;;;35.10;74.20;;;;;;5083407;28;20077;-65
2021/08/18 03:13:29;;;;;;;25.58;5.00;;;35.20;87.60;;;;;;5079723;28;20040;-64
2021/08/18 03:15:56;;;;;;;30.92;6.10;;;35.10;81.50;;;;;;5082609;28;20040;-67
2021/08/18 03:18:23;;;;;;;26.65;6.68;;;35.00;50.80;;;;;;5078886;28;20155;-65
2021/08/18 03:20:49;;;;;;;29.90;8.13;;;35.00;50.90;;;;;;5084055;28;20474;-64
2021/08/18 03:23:16;;;;;;;28.05;8.60;;;34.90;50.90;;;;;;5082881;28;20077;-65
2021/08/18 03:25:42;;;;;;;30.30;10.63;;;34.90;50.90;;;;;;5080910;28;20487;-64
2021/08/18 03:28:09;;;;;;;36.17;13.93;;;34.80;51.00;;;;;;5081857;28;20072;-63
2021/08/18 03:30:35;;;;;;;42.38;14.13;;;34.70;51.30;;;;;;5083956;28;20155;-65
2021/08/18 03:33:02;;;;;;;47.47;18.13;;;34.70;51.50;;;;;;5081367;28;20151;-63
2021/08/18 03:35:29;;;;;;;40.97;18.35;;;34.70;51.00;;;;;;5081938;28;20068;-66
2021/08/18 03:37:55;;;;;;;36.63;15.02;;;34.70;51.00;;;;;;5082928;28;20155;-64
2021/08/18 03:40:22;;;;;;;34.10;12.07;;;34.80;50.90;;;;;;5081859;28;20076;-64
2021/08/18 03:42:48;;;;;;;30.98;8.68;;;34.70;51.10;;;;;;5081637;28;20096;-64
2021/08/18 03:45:15;;;;;;;31.42;7.75;;;34.60;51.30;;;;;;5081289;28;20433;-62
2021/08/18 03:47:42;;;;;;;41.03;8.57;;;34.50;51.40;;;;;;5085232;28;20084;-65
2021/08/18 03:50:09;;;;;;;20.65;6.40;;;34.50;51.30;;;;;;5073068;28;20069;-64
2021/08/18 03:52:41;;;;;;;30.75;7.93;;;34.50;51.30;;;;;;5086548;28;20080;-65
2021/08/18 03:55:11;;;;;;;26.33;8.50;;;34.60;51.30;;;;;;5082984;28;20069;-65
2021/08/18 03:57:38;;;;;;;26.73;8.60;;;34.50;51.40;;;;;;5081000;28;20076;-65
2021/08/18 04:00:09;;;;;;;22.77;7.43;;;34.50;51.60;;;;;;5077506;28;20530;-65
2021/08/18 04:02:36;;;;;;;22.40;6.57;;;34.40;51.70;;;;;;5079099;28;20172;-64
2021/08/18 04:05:04;;;;;;;25.73;6.05;;;34.30;52.70;;;;;;5081017;28;20076;-65
2021/08/18 04:07:31;;;;;;;20.63;6.03;;;34.30;52.40;;;;;;5082049;28;20147;-66
2021/08/18 04:09:57;;;;;;;26.38;5.45;;;34.30;52.80;;;;;;5077315;28;20076;-64
2021/08/18 04:12:24;;;;;;;20.17;5.30;;;34.30;53.20;;;;;;5084976;28;20073;-65
2021/08/18 04:14:50;;;;;;;20.85;5.25;;;34.30;53.70;;;;;;5082065;28;20106;-66
2021/08/18 04:17:17;;;;;;;16.95;4.15;;;34.20;53.70;;;;;;5079316;28;20177;-65
2021/08/18 04:19:44;;;;;;;24.65;5.43;;;34.30;54.00;;;;;;5080415;28;20065;-64
2021/08/18 04:22:10;;;;;;;17.63;4.82;;;34.20;54.30;;;;;;5084078;28;20069;-65
2021/08/18 04:24:37;;;;;;;16.95;4.80;;;34.20;54.80;;;;;;5080836;28;20076;-65
2021/08/18 04:27:04;;;;;;;19.70;5.20;;;34.10;55.60;;;;;;5083868;28;20069;-65
2021/08/18 04:29:31;;;;;;;16.45;5.43;;;34.00;56.00;;;;;;5080290;28;20081;-66
2021/08/18 04:31:59;;;;;;;23.25;5.13;;;34.00;56.20;;;;;;5078992;28;20473;-64
2021/08/18 04:34:25;;;;;;;16.67;5.97;;;33.90;56.90;;;;;;5084475;28;20080;-65
2021/08/18 04:36:52;;;;;;;19.42;5.57;;;33.80;57.40;;;;;;5079054;28;20605;-64
2021/08/18 04:39:18;;;;;;;17.55;6.18;;;33.90;57.60;;;;;;5087773;28;20069;-64
2021/08/18 04:41:45;;;;;;;33.15;6.60;;;33.80;57.80;;;;;;5086588;28;20110;-64
2021/08/18 04:44:12;;;;;;;16.63;5.65;;;33.80;57.90;;;;;;5088077;28;20072;-66
2021/08/18 04:46:39;;;;;;;20.25;6.93;;;33.80;58.20;;;;;;5083326;28;20160;-64
2021/08/18 04:49:05;;;;;;;24.98;6.28;;;33.80;58.40;;;;;;5086460;28;20084;-65
2021/08/18 04:51:32;;;;;;;21.45;5.45;;;33.80;58.70;;;;;;5086462;28;20068;-65
2021/08/18 04:53:58;;;;;;;20.08;5.47;;;33.70;59.10;;;;;;5085949;28;20073;-64
2021/08/18 04:56:25;;;;;;;16.00;5.13;;;33.70;59.30;;;;;;5085609;28;20105;-63
2021/08/18 04:58:51;;;;;;;18.45;5.50;;;33.70;59.50;;;;;;5086260;28;20075;-64
2021/08/18 05:01:18;;;;;;;23.73;5.82;;;33.70;59.80;;;;;;5086166;28;20537;-65
2021/08/18 05:03:44;;;;;;;22.92;6.85;;;33.50;60.30;;;;;;5082514;28;20780;-66
2021/08/18 05:06:11;;;;;;;32.58;6.95;;;33.60;60.40;;;;;;5086781;28;20190;-64
2021/08/18 05:08:37;;;;;;;21.75;6.03;;;33.60;60.90;;;;;;5087778;28;20118;-63
2021/08/18 05:11:04;;;;;;;24.00;6.20;;;33.60;61.30;;;;;;5081897;28;20072;-64
2021/08/18 05:13:30;;;;;;;16.75;6.00;;;33.60;61.10;;;;;;5082845;28;20064;-63
2021/08/18 05:15:57;;;;;;;17.30;5.57;;;33.60;61.30;;;;;;5086608;28;20140;-62
2021/08/18 05:18:23;;;;;;;15.10;4.78;;;33.50;61.90;;;;;;5084722;28;20470;-66
2021/08/18 05:20:50;;;;;;;21.52;5.55;;;33.50;62.30;;;;;;5087392;28;20072;-63
2021/08/18 05:23:16;;;;;;;18.25;4.80;;;33.50;62.70;;;;;;5089884;28;20479;-65
2021/08/18 05:25:43;;;;;;;15.60;4.40;;;33.50;62.80;;;;;;5084128;28;20069;-65
2021/08/18 05:28:13;;;;;;;22.63;5.00;;;33.40;63.40;;;;;;5082629;28;20105;-64
2021/08/18 05:30:40;;;;;;;19.77;4.63;;;33.30;64.20;;;;;;5084339;28;20160;-64
2021/08/18 05:33:07;;;;;;;21.35;5.30;;;33.30;64.50;;;;;;5078676;28;20097;-65
2021/08/18 05:35:33;;;;;;;17.25;4.93;;;33.20;64.70;;;;;;5083215;28;20093;-65
2021/08/18 05:38:00;;;;;;;23.23;5.00;;;33.10;64.90;;;;;;5082096;28;20093;-66
2021/08/18 05:40:26;;;;;;;17.27;5.63;;;33.10;65.20;;;;;;5083681;28;20073;-63
2021/08/18 05:42:54;;;;;;;14.57;4.68;;;33.00;65.30;;;;;;5084522;28;20111;-63
2021/08/18 05:45:20;;;;;;;20.63;5.40;;;33.00;65.20;;;;;;5082808;28;20542;-63
2021/08/18 05:47:47;;;;;;;19.27;4.88;;;33.10;65.10;;;;;;5085705;28;20541;-62
2021/08/18 05:50:14;;;;;;;15.40;4.75;;;33.10;64.70;;;;;;5070698;28;20091;-62
2021/08/18 05:52:41;;;;;;;23.17;4.78;;;33.00;64.60;;;;;;5084661;28;20084;-62
2021/08/18 05:55:08;;;;;;;20.00;5.60;;;33.10;64.60;;;;;;5085702;28;20476;-63
2021/08/18 05:57:35;;;;;;;22.67;5.47;;;33.10;64.30;;;;;;5083727;28;20093;-62
2021/08/18 06:00:03;;;;;;;14.77;5.05;;;33.10;64.00;;;;;;5083400;28;20151;-63
2021/08/18 06:02:30;;;;;;;20.33;5.57;;;33.10;64.10;;;;;;5081191;28;20095;-62
2021/08/18 06:04:56;;;;;;;17.65;5.35;;;33.00;64.00;;;;;;5086079;28;20104;-63
2021/08/18 06:07:23;;;;;;;17.90;5.25;;;32.90;64.10;;;;;;5085338;28;20088;-63
2021/08/18 06:09:49;;;;;;;21.23;6.03;;;32.90;64.80;;;;;;5085131;28;20076;-62
2021/08/18 06:12:16;;;;;;;22.30;5.18;;;33.10;64.40;;;;;;5084307;28;20080;-62
2021/08/18 06:14:43;;;;;;;13.10;4.63;;;33.00;64.40;;;;;;5088137;28;20073;-64
2021/08/18 06:17:09;;;;;;;20.35;5.22;;;33.10;64.30;;;;;;5084410;28;20499;-63
2021/08/18 06:19:36;;;;;;;21.60;5.35;;;32.90;64.40;;;;;;5086424;28;20072;-64
2021/08/18 06:22:03;;;;;;;18.25;4.75;;;32.90;64.40;;;;;;5084919;28;20077;-63
2021/08/18 06:24:40;;;;;;;16.33;4.40;;;32.90;64.60;;;;;;5078083;28;20076;-64
2021/08/18 06:27:12;;;;;;;10.80;4.47;;;32.90;64.80;;;;;;5081858;28;20522;-62
2021/08/18 06:29:39;;;;;;;21.65;5.40;;;33.00;64.70;;;;;;5079972;28;20080;-62
2021/08/18 06:32:06;;;;;;;16.23;4.90;;;33.00;64.70;;;;;;5082356;28;20218;-64
2021/08/18 06:34:33;;;;;;;18.73;4.90;;;32.90;65.10;;;;;;5085228;28;20080;-64
2021/08/18 06:37:02;;;;;;;21.30;5.00;;;32.90;65.40;;;;;;5084970;28;20093;-63
2021/08/18 06:39:30;;;;;;;18.05;5.10;;;32.90;65.60;;;;;;5082246;28;20092;-63
2021/08/18 06:41:57;;;;;;;19.65;4.80;;;32.90;65.60;;;;;;5084057;28;20080;-64
2021/08/18 06:44:24;;;;;;;14.85;4.93;;;32.80;65.70;;;;;;5082515;28;20085;-63
2021/08/18 06:46:50;;;;;;;18.48;5.38;;;32.90;66.00;;;;;;5082035;28;20076;-63
2021/08/18 06:49:17;;;;;;;20.02;5.50;;;32.80;66.10;;;;;;5085058;28;20101;-63
2021/08/18 06:51:44;;;;;;;13.90;4.43;;;32.90;66.20;;;;;;5082037;28;20164;-63
2021/08/18 06:54:10;;;;;;;15.95;4.68;;;32.90;66.30;;;;;;5081419;28;20084;-64
2021/08/18 06:56:37;;;;;;;14.52;4.18;;;32.80;66.80;;;;;;5081417;28;20097;-64
2021/08/18 06:59:03;;;;;;;17.48;5.03;;;32.70;67.40;;;;;;5082379;28;20072;-63
2021/08/18 07:01:30;;;;;;;13.77;4.65;;;32.70;67.50;;;;;;5079691;28;20069;-63
2021/08/18 07:03:57;;;;;;;15.65;5.05;;;32.70;67.70;;;;;;5082336;28;20065;-64
2021/08/18 07:06:23;;;;;;;18.55;5.07;;;32.60;68.10;;;;;;5083302;28;20102;-63
2021/08/18 07:08:50;;;;;;;19.15;5.00;;;32.60;68.70;;;;;;5085324;28;20553;-63
2021/08/18 07:11:16;;;;;;;15.10;5.32;;;32.40;69.20;;;;;;5086696;28;20085;-63
2021/08/18 07:13:43;;;;;;;18.45;4.72;;;32.50;69.50;;;;;;5080307;28;20430;-64
2021/08/18 07:16:09;;;;;;;19.90;5.10;;;32.50;69.40;;;;;;5083175;28;20277;-64
2021/08/18 07:18:36;;;;;;;18.65;4.35;;;32.50;69.10;;;;;;5080471;28;20156;-64
2021/08/18 07:21:03;;;;;;;19.40;5.13;;;32.60;69.50;;;;;;5081893;28;20073;-64
2021/08/18 07:23:29;;;;;;;17.23;4.95;;;32.50;69.70;;;;;;5085506;28;20078;-64
2021/08/18 07:25:56;;;;;;;15.75;4.50;;;32.50;70.10;;;;;;5082980;28;20073;-63
2021/08/18 07:28:22;;;;;;;15.82;4.95;;;32.30;70.40;;;;;;5081403;28;20073;-61
2021/08/18 07:30:49;;;;;;;13.30;4.30;;;32.30;71.00;;;;;;5084149;28;20073;-65
2021/08/18 07:33:15;;;;;;;13.82;4.50;;;32.30;71.20;;;;;;5084812;28;20134;-63
2021/08/18 07:35:42;;;;;;;14.43;4.35;;;32.40;71.10;;;;;;5082605;28;20093;-65
2021/08/18 07:38:09;;;;;;;16.60;4.40;;;32.40;71.30;;;;;;5079563;28;20092;-63
2021/08/18 07:40:35;;;;;;;14.45;4.10;;;32.40;71.30;;;;;;5084404;28;20126;-63
2021/08/18 07:43:03;;;;;;;18.10;4.78;;;32.30;74.60;;;;;;5082196;28;20072;-62
2021/08/18 07:45:30;;;;;;;22.00;4.45;;;30.40;80.10;;;;;;5081564;28;20113;-61
2021/08/18 07:47:56;;;;;;;17.98;4.95;;;32.20;72.10;;;;;;5085094;28;20072;-64
2021/08/18 07:50:23;;;;;;;16.45;4.93;;;32.30;72.60;;;;;;5083807;28;20097;-63
2021/08/18 07:52:54;;;;;;;15.70;4.40;;;32.30;72.90;;;;;;5083117;28;21599;-64
2021/08/18 07:55:25;;;;;;;17.40;4.45;;;32.20;73.00;;;;;;5083937;28;20080;-64
2021/08/18 07:57:55;;;;;;;13.52;4.88;;;32.30;74.00;;;;;;5080675;28;20073;-63
2021/08/18 08:00:24;;;;;;;17.10;4.97;;;32.30;73.60;;;;;;5083523;28;20073;-64
2021/08/18 08:02:53;;;;;;;19.02;4.45;;;32.20;74.00;;;;;;5083770;28;20088;-64
2021/08/18 08:05:31;;;;;;;21.70;5.63;;;32.30;74.00;;;;;;5079053;28;20160;-63
2021/08/18 08:07:58;;;;;;;19.17;5.00;;;32.20;74.30;;;;;;5083152;28;20100;-63
2021/08/18 08:10:26;;;;;;;15.30;4.70;;;32.20;74.60;;;;;;5082375;28;20076;-64
2021/08/18 08:13:07;;;;;;;17.38;4.88;;;32.20;75.30;;;;;;5080798;28;20160;-64
2021/08/18 08:15:34;;;;;;;18.88;5.03;;;32.20;75.70;;;;;;5077993;28;20120;-64
2021/08/18 08:18:02;;;;;;;13.05;4.90;;;32.20;75.60;;;;;;5078716;28;20089;-62
2021/08/18 08:20:29;;;;;;;17.63;4.38;;;32.10;76.20;;;;;;5081255;28;20175;-65
2021/08/18 08:22:56;;;;;;;17.17;5.30;;;32.10;76.00;;;;;;5079826;28;20077;-62
2021/08/18 08:25:22;;;;;;;15.65;4.75;;;32.10;76.20;;;;;;5080482;28;20077;-64
2021/08/18 08:27:49;;;;;;;15.80;4.50;;;32.00;76.90;;;;;;5085374;28;20069;-63
2021/08/18 08:30:16;;;;;;;15.02;5.47;;;31.90;77.40;;;;;;5084310;28;20542;-63
2021/08/18 08:32:43;;;;;;;18.98;5.70;;;31.90;77.40;;;;;;5083436;28;20107;-64
2021/08/18 08:35:11;;;;;;;16.25;4.93;;;31.90;77.80;;;;;;5086636;28;20073;-63
2021/08/18 08:37:38;;;;;;;20.92;5.45;;;31.90;78.20;;;;;;5079633;28;20128;-64
2021/08/18 08:40:05;;;;;;;13.45;4.10;;;31.90;78.70;;;;;;5083433;28;20069;-63
2021/08/18 08:42:32;;;;;;;14.82;5.20;;;31.80;79.30;;;;;;5081879;28;20584;-63
2021/08/18 08:45:02;;;;;;;12.85;4.40;;;31.90;78.90;;;;;;5082728;28;20080;-64
2021/08/18 08:47:28;;;;;;;19.95;4.63;;;31.80;79.30;;;;;;5081494;28;20064;-63
2021/08/18 08:49:57;;;;;;;16.08;4.95;;;31.80;80.30;;;;;;5081191;28;20068;-63
2021/08/18 08:52:24;;;;;;;12.38;4.47;;;31.80;80.10;;;;;;5083474;28;21695;-62
2021/08/18 08:54:50;;;;;;;15.50;4.45;;;31.80;80.30;;;;;;5084711;28;20100;-63
2021/08/18 08:57:17;;;;;;;15.80;4.30;;;31.80;80.50;;;;;;5083099;28;20096;-63
2021/08/18 08:59:43;;;;;;;21.77;5.28;;;31.80;80.90;;;;;;5080436;28;20076;-64
2021/08/18 09:02:12;;;;;;;15.15;4.43;;;31.80;81.40;;;;;;5080391;28;20487;-63
2021/08/18 09:04:45;;;;;;;18.63;4.40;;;31.80;82.20;;;;;;5083161;28;20065;-64
2021/08/18 09:07:18;;;;;;;16.20;4.63;;;31.80;82.30;;;;;;5081267;28;20414;-65
2021/08/18 09:09:56;;;;;;;17.20;4.60;;;31.80;82.40;;;;;;5082232;28;20077;-64
2021/08/18 09:12:39;;;;;;;15.55;4.30;;;31.70;83.20;;;;;;5085420;28;20073;-63
2021/08/18 09:15:25;;;;;;;15.57;4.70;;;31.70;83.00;;;;;;5082834;28;20069;-64
2021/08/18 09:17:55;;;;;;;15.77;4.60;;;31.70;83.20;;;;;;5083431;28;20715;-63
2021/08/18 09:20:25;;;;;;;16.27;5.07;;;31.60;83.30;;;;;;5086181;28;20309;-63
2021/08/18 09:22:56;;;;;;;19.52;5.03;;;31.60;84.50;;;;;;5099833;28;20079;-64
2021/08/18 09:25:26;;;;;;;19.30;5.03;;;31.60;84.20;;;;;;5083464;28;20548;-63
2021/08/18 09:28:16;;;;;;;21.30;5.70;;;31.70;84.20;;;;;;5084503;28;20088;-62
2021/08/18 09:30:45;;;;;;;20.20;5.18;;;31.70;84.10;;;;;;5085490;28;20065;-63
2021/08/18 09:33:14;;;;;;;21.95;4.88;;;31.70;84.20;;;;;;5083727;28;20068;-63
2021/08/18 09:35:42;;;;;;;17.83;5.25;;;31.70;84.40;;;;;;5082613;28;20100;-63
2021/08/18 09:38:11;;;;;;;14.82;5.05;;;31.70;84.60;;;;;;5084775;28;20091;-63
2021/08/18 09:40:44;;;;;;;18.83;5.10;;;31.70;84.40;;;;;;5083165;28;20118;-63
2021/08/18 09:43:13;;;;;;;13.13;4.85;;;31.70;84.90;;;;;;5086500;28;20073;-63
2021/08/18 09:45:45;;;;;;;21.00;5.60;;;31.70;85.40;;;;;;5089665;28;20087;-62
2021/08/18 09:48:19;;;;;;;15.85;5.13;;;31.60;85.10;;;;;;5083623;28;20088;-63
2021/08/18 09:50:56;;;;;;;18.42;5.47;;;31.70;84.90;;;;;;5087935;28;20073;-63
2021/08/18 09:53:26;;;;;;;17.42;4.43;;;31.70;85.40;;;;;;5087014;28;20075;-63
2021/08/18 09:55:59;;;;;;;14.93;4.70;;;31.70;85.30;;;;;;5082273;28;21512;-63
2021/08/18 09:58:38;;;;;;;19.55;5.15;;;31.70;85.60;;;;;;5082587;28;20073;-63
2021/08/18 10:01:11;;;;;;;15.85;5.38;;;31.50;86.10;;;;;;5083365;28;20077;-62
2021/08/18 10:03:39;;;;;;;18.27;5.22;;;31.50;86.60;;;;;;5083311;28;20073;-64
2021/08/18 10:06:07;;;;;;;17.58;5.10;;;31.50;86.80;;;;;;5084081;28;20073;-63
2021/08/18 10:08:35;;;;;;;21.50;5.97;;;31.50;86.80;;;;;;5089205;28;20085;-63
2021/08/18 10:11:03;;;;;;;18.17;5.45;;;31.50;87.50;;;;;;5086908;28;20073;-64
2021/08/18 10:13:31;;;;;;;17.33;4.43;;;31.50;87.70;;;;;;5084606;28;20122;-64
2021/08/18 10:15:58;;;;;;;17.65;5.55;;;31.50;87.50;;;;;;5087108;28;20633;-64
2021/08/18 10:18:36;;;;;;;16.77;4.38;;;31.50;87.80;;;;;;5083688;28;20084;-63
2021/08/18 10:21:06;;;;;;;18.27;5.18;;;31.40;88.30;;;;;;5086961;28;20072;-61
2021/08/18 10:23:42;;;;;;;22.65;5.50;;;31.50;88.60;;;;;;5080810;28;20144;-64
2021/08/18 10:26:29;;;;;;;21.73;6.03;;;31.40;89.00;;;;;;5082459;28;20080;-63
2021/08/18 10:29:06;;;;;;;14.98;4.63;;;31.30;89.50;;;;;;5082363;28;20080;-63
2021/08/18 10:32:09;;;;;;;17.98;5.22;;;31.20;90.30;;;;;;5082131;28;20539;-62
2021/08/18 10:34:42;;;;;;;19.15;5.30;;;31.30;90.30;;;;;;5084236;28;20410;-63
2021/08/18 10:37:19;;;;;;;18.10;5.05;;;31.20;90.20;;;;;;5085822;28;20480;-62
2021/08/18 10:39:51;;;;;;;19.30;4.88;;;31.20;90.60;;;;;;5083934;28;20081;-62
2021/08/18 10:42:37;;;;;;;21.58;5.85;;;31.10;90.90;;;;;;5085968;28;20450;-62
2021/08/18 10:45:23;;;;;;;17.33;4.45;;;31.00;91.20;;;;;;5083219;28;20076;-62
2021/08/18 10:47:51;;;;;;;20.58;4.70;;;31.00;91.60;;;;;;5084812;28;20068;-63
2021/08/18 10:50:26;;;;;;;19.65;5.60;;;31.00;91.80;;;;;;5085219;28;20172;-62
2021/08/18 10:52:54;;;;;;;21.42;5.82;;;30.30;99.90;;;;;;5085379;28;20118;-62
2021/08/18 10:55:26;;;;;;;20.65;5.20;;;30.70;99.90;;;;;;5082088;28;20085;-63
2021/08/18 10:57:53;;;;;;;21.83;5.88;;;;;;;;;;5083233;28;21663;-64
2021/08/18 11:00:40;;;;;;;18.67;6.22;;;30.90;99.90;;;;;;5087022;28;20077;-63
2021/08/18 11:03:09;;;;;;;26.33;7.38;;;30.90;99.90;;;;;;5082417;28;20032;-62
2021/08/18 11:05:38;;;;;;;20.80;5.88;;;31.20;94.40;;;;;;5083484;28;20502;-63
2021/08/18 11:08:12;;;;;;;29.77;6.25;;;30.70;97.80;;;;;;5082777;28;20020;-63
2021/08/18 11:10:55;;;;;;;22.25;6.15;;;30.90;99.70;;;;;;5084296;28;20028;-62
2021/08/18 11:13:45;;;;;;;21.83;6.53;;;30.90;99.90;;;;;;5084069;28;20065;-63
2021/08/18 11:16:17;;;;;;;16.23;5.32;;;30.90;98.90;;;;;;5081048;28;20082;-62
2021/08/18 11:19:10;;;;;;;21.88;5.93;;;30.80;92.90;;;;;;5079380;28;20060;-62
2021/08/18 11:21:41;;;;;;;19.42;5.45;;;30.70;92.50;;;;;;5072043;28;20191;-63
2021/08/18 11:24:10;;;;;;;20.85;4.25;;;30.60;92.10;;;;;;5081714;28;20514;-63
2021/08/18 11:26:40;;;;;;;20.88;5.10;;;30.60;92.10;;;;;;5082193;28;20173;-63
2021/08/18 11:29:09;;;;;;;15.50;5.00;;;30.50;91.60;;;;;;5083792;28;20033;-63
2021/08/18 11:31:38;;;;;;;20.23;5.45;;;30.20;99.10;;;;;;5083854;28;20082;-63
2021/08/18 11:34:17;;;;;;;18.25;5.82;;;30.30;87.10;;;;;;5082736;28;20469;-64
2021/08/18 11:36:44;;;;;;;11.90;5.00;;;30.30;97.20;;;;;;5083473;28;20043;-61
2021/08/18 11:39:12;;;;;;;14.10;5.15;;;30.30;78.20;;;;;;5082419;28;20020;-63
2021/08/18 11:41:43;;;;;;;15.90;6.00;;;30.20;93.10;;;;;;5081948;28;20027;-62
2021/08/18 11:44:15;;;;;;;14.63;6.75;;;30.10;92.40;;;;;;5083519;28;20027;-63
2021/08/18 11:46:42;;;;;;;12.30;6.05;;;30.10;89.70;;;;;;5081150;28;20024;-63
2021/08/18 11:49:09;;;;;;;14.38;6.30;;;30.40;89.60;;;;;;5083718;28;20107;-62
2021/08/18 11:51:37;;;;;;;16.70;5.95;;;30.20;89.50;;;;;;5084671;28;21348;-62
2021/08/18 11:54:05;;;;;;;17.63;6.10;;;30.20;59.50;;;;;;5080807;28;20119;-63
2021/08/18 11:56:32;;;;;;;19.17;6.60;;;29.80;91.70;;;;;;5084120;28;20113;-61
2021/08/18 11:59:04;;;;;;;15.07;6.40;;;30.20;59.10;;;;;;5077524;28;20090;-62
2021/08/18 12:01:31;;;;;;;10.85;6.03;;;30.30;59.10;;;;;;5083694;28;20082;-62
2021/08/18 12:03:59;;;;;;;13.68;5.72;;;30.10;59.10;;;;;;5084039;28;20448;-62
2021/08/18 12:06:37;;;;;;;11.77;6.07;;;30.00;87.50;;;;;;5081575;28;20028;-63
2021/08/18 12:09:20;;;;;;;15.63;5.93;;;30.40;90.30;;;;;;5086276;28;20035;-63
2021/08/18 12:11:46;;;;;;;12.65;6.70;;;30.30;57.10;;;;;;5082679;28;20464;-62
2021/08/18 12:14:18;;;;;;;14.25;5.43;;;30.30;56.70;;;;;;5082668;28;20461;-62
2021/08/18 12:16:56;;;;;;;17.02;6.75;;;30.20;57.20;;;;;;5085006;28;20189;-62
2021/08/18 12:19:27;;;;;;;12.38;5.93;;;30.30;56.90;;;;;;5080612;28;20069;-62
2021/08/18 12:22:03;;;;;;;13.23;5.78;;;30.30;56.80;;;;;;5080106;28;20077;-63
2021/08/18 12:24:30;;;;;;;14.63;5.72;;;30.30;56.30;;;;;;5084619;28;20473;-63
2021/08/18 12:27:10;;;;;;;12.32;6.40;;;30.30;56.40;;;;;;5084502;28;20073;-63
2021/08/18 12:29:37;;;;;;;11.07;5.45;;;30.20;56.60;;;;;;5083030;28;20162;-63
2021/08/18 12:32:09;;;;;;;9.60;5.63;;;30.30;57.00;;;;;;5082984;28;20077;-63
2021/08/18 12:34:45;;;;;;;12.43;5.47;;;30.30;56.60;;;;;;5085219;28;20525;-63
2021/08/18 12:37:22;;;;;;;14.10;6.05;;;30.30;56.80;;;;;;5083091;28;20130;-62
2021/08/18 12:40:08;;;;;;;13.75;6.25;;;30.20;56.50;;;;;;5079994;28;20589;-64
2021/08/18 12:42:43;;;;;;;12.52;6.15;;;30.20;56.60;;;;;;5082060;28;20084;-61
2021/08/18 12:45:17;;;;;;;13.02;6.40;;;30.10;55.70;;;;;;5078469;28;20130;-62
2021/08/18 12:47:54;;;;;;;13.77;6.20;;;30.10;55.90;;;;;;5079756;28;20081;-63